LTAU/ASR METAR and TAF weather

Enter ICAO airport designator
Station Type Date Time Source
LTAU METAR 2019/10/22 16:50 UTC NOAA

LTAU 221650Z 00000KT 9000 -SHRA FEW027CB BKN035 12/11 Q1020 TEMPO 13015G25KT -TSRA


Station Type Date Time Source
LTAU Decoded METAR 2019/10/22 16:50 UTC NOAA

Kayseri / Erkilet, Turkey (LTAU) 38-47N 035-29E 1054M
Oct 22, 2019 - 12:50 PM EDT / 2019.10.22 1650 UTC
Wind: Calm:0
Visibility: 5 mile(s):0
Sky conditions: mostly cloudy
Weather: light rain showers; Cumulonimbus clouds observed
Temperature: 53 F (12 C)
Dew Point: 51 F (11 C)
Relative Humidity: 93%
Pressure (altimeter): 30.12 in. Hg (1020 hPa)
ob: LTAU 221650Z 00000KT 9000 -SHRA FEW027CB BKN035 12/11 Q1020 TEMPO 13015G25KT -TSRA
cycle: 17

Station Type Date Time Source
LTAU TAF 2019/10/22 18:03 UTC NOAA

TAF LTAU 221640Z 2218/2318 06008KT 9999 SCT035 BKN090
TEMPO 2218/2221 13015G25KT -TSRA FEW027CB BKN035

Example: see airport list